createdAt,value
2018-03-24T00:00:38.319Z,72.20
2018-03-24T00:03:05.821Z,72.20
2018-03-24T00:05:33.331Z,71.30
2018-03-24T00:08:00.861Z,71.40
2018-03-24T00:10:29.127Z,71.50
2018-03-24T00:12:57.424Z,71.50
2018-03-24T00:15:25.678Z,71.70
2018-03-24T00:17:53.954Z,70.30
2018-03-24T00:20:22.220Z,71.10
2018-03-24T00:22:50.495Z,71.20
2018-03-24T00:25:19.500Z,72.20
2018-03-24T00:27:47.010Z,72.20
2018-03-24T00:30:14.514Z,72.60
2018-03-24T00:32:42.772Z,72.40
2018-03-24T00:35:10.263Z,72.40
2018-03-24T00:37:38.532Z,72.70
2018-03-24T00:40:06.787Z,72.70
2018-03-24T00:42:34.320Z,72.50
2018-03-24T00:45:03.064Z,72.60
2018-03-24T00:47:33.302Z,73.00
2018-03-24T00:50:00.797Z,73.00
2018-03-24T00:52:28.311Z,72.90
2018-03-24T00:54:56.556Z,74.00
2018-03-24T00:57:24.080Z,73.50
2018-03-24T00:59:51.580Z,73.50
2018-03-24T01:02:19.089Z,73.90
2018-03-24T01:04:46.582Z,74.00
2018-03-24T01:07:14.089Z,74.10
2018-03-24T01:09:42.341Z,74.50
2018-03-24T01:12:09.847Z,74.40
2018-03-24T01:14:37.336Z,75.10
2018-03-24T01:17:04.843Z,74.50
2018-03-24T01:19:33.124Z,74.40
2018-03-24T01:22:00.628Z,74.40
2018-03-24T01:24:28.128Z,74.60
2018-03-24T01:26:56.404Z,74.40
2018-03-24T01:29:24.698Z,74.40
2018-03-24T01:31:52.234Z,74.30
2018-03-24T01:34:20.519Z,74.40
2018-03-24T01:36:48.783Z,74.20
2018-03-24T01:39:16.287Z,74.20
2018-03-24T01:41:43.776Z,74.00
2018-03-24T01:44:11.289Z,73.70
2018-03-24T01:46:38.780Z,73.40
2018-03-24T01:49:06.287Z,73.60
2018-03-24T01:51:34.548Z,74.10
2018-03-24T01:54:02.052Z,73.60
2018-03-24T01:56:29.543Z,73.70
2018-03-24T01:58:57.048Z,73.60
2018-03-24T02:01:24.545Z,73.60
2018-03-24T02:03:52.044Z,73.60
2018-03-24T02:06:19.555Z,73.60
2018-03-24T02:08:47.036Z,73.40
2018-03-24T02:11:14.530Z,73.60
2018-03-24T02:13:43.637Z,73.50
2018-03-24T02:16:11.896Z,73.90
2018-03-24T02:18:39.452Z,73.80
2018-03-24T02:24:08.791Z,74.40
2018-03-24T02:26:37.039Z,74.60
2018-03-24T02:29:04.550Z,74.50
2018-03-24T02:31:32.044Z,74.50
2018-03-24T02:33:59.542Z,74.70
2018-03-24T02:36:27.804Z,74.70
2018-03-24T02:38:55.307Z,74.60
2018-03-24T02:41:22.789Z,74.30
2018-03-24T02:43:50.298Z,73.90
2018-03-24T02:46:18.552Z,73.60
2018-03-24T02:48:46.065Z,73.60
2018-03-24T02:51:13.649Z,73.50
2018-03-24T02:53:41.272Z,73.40
2018-03-24T02:56:09.525Z,73.40
2018-03-24T02:58:37.018Z,73.30
2018-03-24T03:01:04.505Z,73.20
2018-03-24T03:03:32.000Z,73.30
2018-03-24T03:05:59.561Z,73.40
2018-03-24T03:08:28.572Z,73.70
2018-03-24T03:10:56.820Z,73.50
2018-03-24T03:13:24.320Z,73.50
2018-03-24T03:15:51.805Z,73.70
2018-03-24T03:18:19.316Z,73.80
2018-03-24T03:20:48.349Z,74.30
2018-03-24T03:23:15.851Z,74.20
2018-03-24T03:25:44.108Z,74.20
2018-03-24T03:28:11.603Z,74.20
2018-03-24T03:30:43.733Z,73.70
2018-03-24T03:33:11.241Z,73.70
2018-03-24T03:35:39.498Z,74.50
2018-03-24T03:38:08.051Z,74.50
2018-03-24T03:40:35.544Z,74.50
2018-03-24T03:43:03.040Z,74.80
2018-03-24T03:45:30.533Z,74.90
2018-03-24T03:47:58.053Z,74.90
2018-03-24T03:50:25.564Z,74.80
2018-03-24T03:52:53.060Z,75.30
2018-03-24T03:55:21.308Z,75.00
2018-03-24T03:57:48.803Z,74.80
2018-03-24T04:00:17.064Z,75.00
2018-03-24T04:02:45.329Z,75.00
2018-03-24T04:05:12.816Z,75.00
2018-03-24T04:07:40.315Z,74.90
2018-03-24T04:10:07.818Z,74.90
2018-03-24T04:12:36.127Z,75.30
2018-03-24T04:15:03.617Z,75.10
2018-03-24T04:17:31.116Z,75.40
2018-03-24T04:19:59.372Z,75.40
2018-03-24T04:22:26.856Z,75.30
2018-03-24T04:24:55.124Z,75.00
2018-03-24T04:27:23.375Z,75.00
2018-03-24T04:29:50.876Z,74.70
2018-03-24T04:32:19.118Z,74.40
2018-03-24T04:34:46.623Z,74.40
2018-03-24T04:37:14.104Z,74.30
2018-03-24T04:39:41.599Z,74.30
2018-03-24T04:42:10.595Z,73.60
2018-03-24T04:44:38.101Z,73.60
2018-03-24T04:47:05.589Z,73.90
2018-03-24T04:49:33.075Z,74.20
2018-03-24T04:52:00.562Z,74.20
2018-03-24T04:54:28.064Z,74.00
2018-03-24T04:56:55.543Z,73.80
2018-03-24T04:59:23.034Z,73.30
2018-03-24T05:01:50.523Z,73.30
2018-03-24T05:04:18.021Z,73.30
2018-03-24T05:06:45.508Z,73.20
2018-03-24T05:09:13.807Z,73.20
2018-03-24T05:11:41.297Z,73.10
2018-03-24T05:14:08.893Z,73.20
2018-03-24T05:16:36.367Z,73.10
2018-03-24T05:19:04.628Z,73.50
2018-03-24T05:21:32.889Z,73.70
2018-03-24T05:24:00.379Z,73.70
2018-03-24T05:26:28.636Z,73.80
2018-03-24T05:28:56.164Z,73.80
2018-03-24T05:31:23.655Z,74.10
2018-03-24T05:33:51.916Z,73.90
2018-03-24T05:36:19.414Z,73.80
2018-03-24T05:38:46.911Z,74.10
2018-03-24T05:41:14.386Z,74.10
2018-03-24T05:43:41.886Z,74.20
2018-03-24T05:46:10.149Z,74.20
2018-03-24T05:48:37.685Z,74.20
2018-03-24T05:51:05.200Z,75.10
2018-03-24T05:53:33.468Z,74.80
2018-03-24T05:56:00.959Z,74.80
2018-03-24T05:58:28.455Z,74.70
2018-03-24T06:00:55.939Z,74.60
2018-03-24T06:03:24.205Z,74.80
2018-03-24T06:05:52.466Z,75.10
2018-03-24T06:08:19.967Z,74.90
2018-03-24T06:10:47.456Z,74.60
2018-03-24T06:13:14.956Z,75.30
2018-03-24T06:15:43.208Z,75.30
2018-03-24T06:18:10.726Z,75.20
2018-03-24T06:20:38.271Z,75.20
2018-03-24T06:23:05.847Z,75.10
2018-03-24T06:25:33.340Z,75.00
2018-03-24T06:28:00.872Z,74.90
2018-03-24T06:30:30.819Z,75.10
2018-03-24T06:32:58.315Z,74.90
2018-03-24T06:35:26.579Z,74.60
2018-03-24T06:37:54.826Z,74.50
2018-03-24T06:40:22.354Z,74.40
2018-03-24T06:42:49.825Z,74.00
2018-03-24T06:45:17.333Z,74.00
2018-03-24T06:47:45.571Z,74.60
2018-03-24T06:50:13.067Z,74.40
2018-03-24T06:52:41.315Z,74.20
2018-03-24T06:55:08.829Z,74.20
2018-03-24T06:57:36.309Z,74.20
2018-03-24T07:00:03.916Z,74.20
2018-03-24T07:02:31.428Z,74.60
2018-03-24T07:04:58.927Z,74.90
2018-03-24T07:07:26.413Z,74.90
2018-03-24T07:09:54.713Z,75.20
2018-03-24T07:12:22.204Z,75.20
2018-03-24T07:14:49.716Z,75.20
2018-03-24T07:17:17.204Z,75.20
2018-03-24T07:19:44.727Z,75.40
2018-03-24T07:22:12.979Z,75.50
2018-03-24T07:24:40.499Z,75.50
2018-03-24T07:27:07.983Z,75.70
2018-03-24T07:29:35.499Z,75.70
2018-03-24T07:32:03.002Z,75.60
2018-03-24T07:34:30.499Z,75.70
2018-03-24T07:36:58.016Z,75.60
2018-03-24T07:39:25.557Z,75.50
2018-03-24T07:41:53.038Z,75.00
2018-03-24T07:44:20.578Z,74.60
2018-03-24T07:46:48.096Z,74.30
2018-03-24T07:49:16.371Z,73.80
2018-03-24T07:51:43.859Z,73.70
2018-03-24T07:54:11.364Z,73.70
2018-03-24T07:56:38.847Z,73.70
2018-03-24T07:59:06.349Z,74.20
2018-03-24T08:01:33.843Z,73.80
2018-03-24T08:04:01.396Z,73.70
2018-03-24T08:06:28.900Z,73.30
2018-03-24T08:08:56.476Z,72.10
2018-03-24T08:11:24.045Z,71.30
2018-03-24T08:13:51.535Z,70.50
2018-03-24T08:16:19.063Z,70.60
2018-03-24T08:18:46.586Z,70.90
2018-03-24T08:21:14.899Z,70.00
2018-03-24T08:23:42.414Z,70.00
2018-03-24T08:26:10.775Z,68.50
2018-03-24T08:28:38.348Z,68.40
2018-03-24T08:31:05.961Z,67.90
2018-03-24T08:33:33.500Z,67.70
2018-03-24T08:36:01.080Z,67.70
2018-03-24T08:38:28.644Z,67.40
2018-03-24T08:40:56.245Z,67.80
2018-03-24T08:43:23.708Z,67.50
2018-03-24T08:45:51.193Z,67.50
2018-03-24T08:48:18.684Z,67.50
2018-03-24T08:50:46.188Z,67.50
2018-03-24T08:53:15.540Z,67.00
2018-03-24T08:55:43.203Z,67.00
2018-03-24T08:58:10.663Z,66.30
2018-03-24T09:00:38.133Z,63.30
2018-03-24T09:03:05.611Z,64.00
2018-03-24T09:05:33.200Z,63.10
2018-03-24T09:08:01.575Z,63.50
2018-03-24T09:10:29.043Z,63.50
2018-03-24T09:12:56.533Z,61.40
2018-03-24T09:16:44.291Z,60.50
2018-03-24T09:19:11.775Z,61.10
2018-03-24T09:21:39.235Z,59.70
2018-03-24T09:24:06.715Z,59.30
2018-03-24T09:26:34.251Z,59.60
2018-03-24T09:29:01.836Z,58.50
2018-03-24T09:31:29.288Z,56.20
2018-03-24T09:33:56.816Z,58.20
2018-03-24T09:36:24.307Z,55.40
2018-03-24T09:38:51.802Z,56.10
2018-03-24T09:41:19.263Z,55.60
2018-03-24T09:43:46.742Z,57.00
2018-03-24T09:46:14.224Z,56.10
2018-03-24T09:48:41.684Z,54.80
2018-03-24T09:51:09.155Z,53.40
2018-03-24T09:53:36.843Z,52.50
2018-03-24T09:56:05.087Z,50.60
2018-03-24T09:58:32.554Z,50.50
2018-03-24T10:01:00.041Z,47.10
2018-03-24T10:03:27.576Z,44.90
2018-03-24T10:05:55.046Z,43.30
2018-03-24T10:08:23.280Z,42.10
2018-03-24T10:10:50.771Z,42.00
2018-03-24T10:13:18.244Z,43.40
2018-03-24T10:15:46.490Z,42.90
2018-03-24T10:18:13.946Z,42.80
2018-03-24T10:23:44.229Z,43.90
2018-03-24T10:26:11.729Z,43.70
2018-03-24T10:28:39.200Z,46.40
2018-03-24T10:31:06.721Z,45.20
2018-03-24T10:33:34.196Z,45.40
2018-03-24T10:36:01.673Z,44.10
2018-03-24T10:38:29.203Z,40.70
2018-03-24T10:40:57.286Z,40.40
2018-03-24T10:43:44.569Z,42.70
2018-03-24T10:46:12.831Z,38.50
2018-03-24T10:48:40.367Z,38.40
2018-03-24T10:51:07.851Z,40.80
2018-03-24T10:53:35.317Z,41.20
2018-03-24T10:56:02.800Z,39.80
2018-03-24T10:58:31.063Z,39.70
2018-03-24T11:01:03.188Z,41.90
2018-03-24T11:03:30.727Z,42.40
2018-03-24T11:05:59.032Z,42.10
2018-03-24T11:08:26.497Z,42.00
2018-03-24T11:10:53.963Z,40.50
2018-03-24T11:13:21.426Z,42.50
2018-03-24T11:15:48.984Z,40.20
2018-03-24T11:18:16.448Z,39.20
2018-03-24T11:20:43.920Z,40.60
2018-03-24T11:23:12.160Z,40.00
2018-03-24T11:25:39.656Z,40.00
2018-03-24T11:28:07.119Z,40.20
2018-03-24T11:30:35.355Z,40.80
2018-03-24T11:33:02.877Z,40.60
2018-03-24T11:35:31.963Z,43.30
2018-03-24T11:37:59.425Z,43.30
2018-03-24T11:40:28.279Z,40.50
2018-03-24T11:42:56.379Z,41.20
2018-03-24T11:45:24.627Z,45.30
2018-03-24T11:47:53.633Z,43.20
2018-03-24T11:50:21.093Z,42.60
2018-03-24T11:52:49.328Z,39.10
2018-03-24T11:55:16.791Z,39.00
2018-03-24T11:57:44.413Z,40.80
2018-03-24T12:00:12.736Z,41.10
2018-03-24T12:02:40.200Z,40.80
2018-03-24T12:05:07.663Z,41.50
2018-03-24T12:07:35.144Z,43.40
2018-03-24T12:10:03.380Z,41.90
2018-03-24T12:12:30.839Z,41.90
2018-03-24T12:14:58.308Z,43.10
2018-03-24T12:17:25.787Z,43.80
2018-03-24T12:19:53.267Z,43.10
2018-03-24T12:22:21.515Z,41.50
2018-03-24T12:24:48.987Z,41.50
2018-03-24T12:27:17.282Z,42.50
2018-03-24T12:29:44.799Z,42.40
2018-03-24T12:32:12.295Z,39.90
2018-03-24T12:34:40.520Z,40.00
2018-03-24T12:37:08.104Z,40.00
2018-03-24T12:39:35.560Z,40.90
2018-03-24T12:42:03.035Z,39.80
2018-03-24T12:44:30.513Z,38.90
2018-03-24T12:46:58.000Z,40.00
2018-03-24T12:49:25.459Z,40.90
2018-03-24T12:51:52.942Z,41.60
2018-03-24T12:54:20.418Z,42.00
2018-03-24T12:56:47.904Z,42.70
2018-03-24T12:59:16.131Z,42.90
2018-03-24T13:01:43.631Z,42.90
2018-03-24T13:04:11.875Z,44.20
2018-03-24T13:06:42.148Z,42.30
2018-03-24T13:09:09.708Z,42.00
2018-03-24T13:11:38.183Z,42.80
2018-03-24T13:14:05.645Z,42.60
2018-03-24T13:16:33.111Z,41.90
2018-03-24T13:19:00.594Z,42.70
2018-03-24T13:21:28.062Z,43.40
2018-03-24T13:23:55.534Z,43.80
2018-03-24T13:26:23.007Z,45.20
2018-03-24T13:28:50.479Z,45.70
2018-03-24T13:31:18.774Z,46.00
2018-03-24T13:33:46.276Z,45.80
2018-03-24T13:36:13.779Z,46.30
2018-03-24T13:38:41.244Z,45.20
2018-03-24T13:41:09.627Z,43.50
2018-03-24T13:43:37.850Z,46.20
2018-03-24T13:46:06.380Z,46.20
2018-03-24T13:48:33.852Z,44.60
2018-03-24T13:51:01.403Z,45.20
2018-03-24T13:53:29.826Z,41.60
2018-03-24T13:55:57.296Z,41.70
2018-03-24T13:58:24.854Z,44.60
2018-03-24T14:00:52.325Z,45.70
2018-03-24T14:03:19.974Z,44.80
2018-03-24T14:05:47.442Z,44.50
2018-03-24T14:08:14.915Z,45.30
2018-03-24T14:10:42.391Z,43.40
2018-03-24T14:13:10.734Z,43.70
2018-03-24T14:15:40.012Z,44.50
2018-03-24T14:18:07.488Z,44.50
2018-03-24T14:20:34.955Z,44.40
2018-03-24T14:23:02.484Z,42.40
2018-03-24T14:25:30.033Z,42.90
2018-03-24T14:27:57.504Z,43.60
2018-03-24T14:30:24.967Z,42.00
2018-03-24T14:32:52.436Z,43.10
2018-03-24T14:35:20.429Z,43.90
2018-03-24T14:37:47.946Z,44.70
2018-03-24T14:40:15.351Z,44.80
2018-03-24T14:42:43.918Z,43.10
2018-03-24T14:45:11.383Z,42.50
2018-03-24T14:47:39.885Z,42.70
2018-03-24T14:50:07.343Z,41.70
2018-03-24T14:52:35.619Z,41.80
2018-03-24T14:55:03.092Z,41.70
2018-03-24T14:57:31.347Z,41.50
2018-03-24T14:59:58.829Z,41.50
2018-03-24T15:02:27.061Z,43.30
2018-03-24T15:04:54.541Z,43.00
2018-03-24T15:07:22.006Z,42.10
2018-03-24T15:09:50.399Z,45.30
2018-03-24T15:12:17.956Z,45.20
2018-03-24T15:14:46.939Z,44.80
2018-03-24T15:17:14.472Z,44.80
2018-03-24T15:19:41.922Z,45.70
2018-03-24T15:22:09.454Z,44.10
2018-03-24T15:24:36.924Z,45.60
2018-03-24T15:27:04.395Z,45.40
2018-03-24T15:29:43.648Z,50.40
2018-03-24T15:32:23.187Z,46.70
2018-03-24T15:35:02.677Z,43.70
2018-03-24T15:37:30.987Z,45.60
2018-03-24T15:39:58.480Z,45.60
2018-03-24T15:42:25.944Z,45.60
2018-03-24T15:44:54.234Z,42.10
2018-03-24T15:47:22.490Z,44.30
2018-03-24T15:49:50.044Z,44.20
2018-03-24T15:52:18.567Z,42.90
2018-03-24T15:54:46.019Z,44.50
2018-03-24T15:57:13.493Z,45.00
2018-03-24T15:59:41.099Z,43.50
2018-03-24T16:02:08.616Z,42.90
2018-03-24T16:04:36.102Z,44.80
2018-03-24T16:07:03.574Z,44.70
2018-03-24T16:09:31.084Z,44.10
2018-03-24T16:11:59.324Z,43.90
2018-03-24T16:14:26.825Z,43.90
2018-03-24T16:16:54.312Z,42.70
2018-03-24T16:19:21.782Z,44.20
2018-03-24T16:21:49.251Z,44.50
2018-03-24T16:24:16.835Z,45.90
2018-03-24T16:26:45.074Z,45.70
2018-03-24T16:29:12.584Z,45.70
2018-03-24T16:31:40.143Z,46.20
2018-03-24T16:34:07.628Z,46.10
2018-03-24T16:36:35.086Z,46.00
2018-03-24T16:39:02.559Z,45.20
2018-03-24T16:41:30.062Z,47.10
2018-03-24T16:43:57.614Z,45.70
2018-03-24T16:46:26.102Z,49.00
2018-03-24T16:48:54.390Z,47.60
2018-03-24T16:51:22.721Z,49.10
2018-03-24T16:53:50.352Z,49.10
2018-03-24T16:56:17.885Z,50.00
2018-03-24T16:58:46.107Z,49.30
2018-03-24T17:01:13.563Z,49.20
2018-03-24T17:03:41.417Z,50.00
2018-03-24T17:06:08.867Z,49.70
2018-03-24T17:08:36.340Z,48.40
2018-03-24T17:11:03.782Z,49.40
2018-03-24T17:13:31.477Z,50.20
2018-03-24T17:15:58.999Z,49.30
2018-03-24T17:18:26.468Z,49.80
2018-03-24T17:20:53.918Z,51.60
2018-03-24T17:23:21.543Z,52.80
2018-03-24T17:25:49.035Z,54.30
2018-03-24T17:28:16.520Z,53.70
2018-03-24T17:30:43.983Z,54.50
2018-03-24T17:33:11.836Z,55.30
2018-03-24T17:35:39.223Z,56.60
2018-03-24T17:38:06.698Z,56.00
2018-03-24T17:40:34.168Z,55.90
2018-03-24T17:43:02.442Z,56.30
2018-03-24T17:45:29.908Z,56.20
2018-03-24T17:47:58.140Z,54.30
2018-03-24T17:50:25.606Z,54.30
2018-03-24T17:52:53.068Z,56.50
2018-03-24T17:55:20.554Z,57.20
2018-03-24T17:57:48.822Z,56.50
2018-03-24T18:00:16.294Z,56.40
2018-03-24T18:02:44.538Z,57.00
2018-03-24T18:05:12.160Z,57.00
2018-03-24T18:07:39.648Z,57.50
2018-03-24T18:10:07.162Z,57.40
2018-03-24T18:12:35.368Z,57.50
2018-03-24T18:15:02.877Z,57.50
2018-03-24T18:17:30.367Z,57.20
2018-03-24T18:19:57.824Z,58.40
2018-03-24T18:22:25.372Z,57.10
2018-03-24T18:24:52.919Z,58.10
2018-03-24T18:27:21.153Z,59.00
2018-03-24T18:29:48.634Z,59.00
2018-03-24T18:32:16.124Z,57.30
2018-03-24T18:34:44.365Z,58.20
2018-03-24T18:37:12.088Z,58.20
2018-03-24T18:39:39.732Z,58.30
2018-03-24T18:42:07.343Z,58.10
2018-03-24T18:44:34.815Z,59.00
2018-03-24T18:47:02.295Z,58.90
2018-03-24T18:49:30.578Z,56.70
2018-03-24T18:51:58.058Z,56.70
2018-03-24T18:54:25.537Z,57.40
2018-03-24T18:56:53.183Z,57.60
2018-03-24T18:59:20.652Z,57.90
2018-03-24T19:01:48.112Z,57.20
2018-03-24T19:04:15.606Z,56.60
2018-03-24T19:06:43.064Z,56.70
2018-03-24T19:09:11.287Z,58.10
2018-03-24T19:11:38.768Z,58.00
2018-03-24T19:14:06.335Z,58.00
2018-03-24T19:16:33.881Z,58.10
2018-03-24T19:19:01.344Z,57.80
2018-03-24T19:21:28.825Z,58.30
2018-03-24T19:23:56.388Z,58.30
2018-03-24T19:26:23.945Z,58.80
2018-03-24T19:28:52.315Z,58.60
2018-03-24T19:31:19.796Z,58.60
2018-03-24T19:33:48.767Z,58.40
2018-03-24T19:36:16.246Z,58.40
2018-03-24T19:38:45.242Z,58.20
2018-03-24T19:41:12.725Z,58.20
2018-03-24T19:43:40.327Z,58.70
2018-03-24T19:46:08.848Z,58.40
2018-03-24T19:48:36.326Z,58.90
2018-03-24T19:51:03.858Z,58.70
2018-03-24T19:53:31.463Z,58.60
2018-03-24T19:55:58.956Z,59.00
2018-03-24T19:58:26.483Z,59.10
2018-03-24T20:00:53.958Z,58.80
2018-03-24T20:03:21.459Z,59.30
2018-03-24T20:05:48.981Z,59.20
2018-03-24T20:08:16.452Z,60.00
2018-03-24T20:10:43.978Z,59.50
2018-03-24T20:13:12.266Z,57.80
2018-03-24T20:15:39.808Z,57.80
2018-03-24T20:18:08.060Z,59.10
2018-03-24T20:20:35.515Z,59.00
2018-03-24T20:23:03.015Z,58.30
2018-03-24T20:25:30.484Z,58.30
2018-03-24T20:27:57.972Z,58.70
2018-03-24T20:30:25.431Z,59.10
2018-03-24T20:32:52.908Z,59.60
2018-03-24T20:35:20.383Z,59.80
2018-03-24T20:37:48.677Z,59.30
2018-03-24T20:40:17.017Z,59.90
2018-03-24T20:42:44.567Z,59.90
2018-03-24T20:45:12.049Z,59.70
2018-03-24T20:47:39.552Z,59.70
2018-03-24T20:50:06.980Z,59.50
2018-03-24T20:52:35.444Z,60.70
2018-03-24T20:55:03.708Z,59.80
2018-03-24T20:57:31.195Z,59.70
2018-03-24T20:59:59.432Z,60.70
2018-03-24T21:02:26.983Z,60.70
2018-03-24T21:04:54.447Z,60.90
2018-03-24T21:07:21.955Z,61.10
2018-03-24T21:09:50.195Z,60.90
2018-03-24T21:12:17.736Z,60.90
2018-03-24T21:14:45.208Z,61.10
2018-03-24T21:17:12.667Z,60.40
2018-03-24T21:19:40.148Z,60.80
2018-03-24T21:22:07.622Z,59.50
2018-03-24T21:24:35.873Z,60.20
2018-03-24T21:27:03.368Z,60.20
2018-03-24T21:29:30.847Z,60.20
2018-03-24T21:31:58.308Z,59.90
2018-03-24T21:34:25.788Z,60.50
2018-03-24T21:36:53.280Z,59.70
2018-03-24T21:39:20.764Z,59.70
2018-03-24T21:41:48.243Z,58.80
2018-03-24T21:44:15.713Z,60.10
2018-03-24T21:46:43.244Z,60.30
2018-03-24T21:49:10.708Z,59.80
2018-03-24T21:51:38.243Z,60.60
2018-03-24T21:54:06.489Z,60.80
2018-03-24T21:56:33.998Z,60.80
2018-03-24T21:59:01.451Z,61.20
2018-03-24T22:01:28.952Z,60.70
2018-03-24T22:03:56.524Z,60.90
2018-03-24T22:06:24.075Z,61.20
2018-03-24T22:08:51.528Z,61.40
2018-03-24T22:11:19.038Z,61.50
2018-03-24T22:13:46.533Z,61.70
2018-03-24T22:16:14.179Z,60.80
2018-03-24T22:18:41.644Z,60.80
2018-03-24T22:21:09.139Z,60.10
2018-03-24T22:23:36.636Z,61.10
2018-03-24T22:26:04.891Z,61.10
2018-03-24T22:28:32.352Z,61.10
2018-03-24T22:30:59.835Z,61.10
2018-03-24T22:33:27.331Z,61.30
2018-03-24T22:35:54.831Z,61.40
2018-03-24T22:38:22.320Z,61.30
2018-03-24T22:40:49.797Z,61.40
2018-03-24T22:43:17.283Z,61.00
2018-03-24T22:45:44.763Z,60.80
2018-03-24T22:48:13.024Z,61.30
2018-03-24T22:50:40.513Z,61.30
2018-03-24T22:53:08.761Z,60.20
2018-03-24T22:55:37.037Z,60.60
2018-03-24T22:58:04.529Z,60.60
2018-03-24T23:00:32.091Z,60.10
2018-03-24T23:03:00.372Z,61.00
2018-03-24T23:05:27.952Z,60.90
2018-03-24T23:07:55.440Z,61.00
2018-03-24T23:10:22.966Z,60.90
2018-03-24T23:12:50.461Z,61.30
2018-03-24T23:15:17.972Z,61.10
2018-03-24T23:17:45.439Z,60.80
2018-03-24T23:20:12.948Z,60.80
2018-03-24T23:22:41.216Z,60.80
2018-03-24T23:25:09.542Z,60.80
2018-03-24T23:27:37.761Z,60.50
2018-03-24T23:30:06.427Z,60.70
2018-03-24T23:32:33.917Z,61.10
2018-03-24T23:35:01.494Z,60.80
2018-03-24T23:37:29.035Z,61.80
2018-03-24T23:40:13.917Z,61.20
2018-03-24T23:42:42.175Z,61.10
2018-03-24T23:45:09.709Z,61.10
2018-03-24T23:47:37.236Z,61.10
2018-03-24T23:50:04.735Z,61.30
2018-03-24T23:52:32.245Z,61.40
2018-03-24T23:54:59.725Z,61.30
2018-03-24T23:57:27.340Z,61.60
2018-03-24T23:59:54.839Z,61.20
